sensor_id;sensor_type;location;lat;lon;timestamp;pressure;altitude;pressure_sealevel;temperature;humidity
45633;BME280;31352;41.406;2.158;2022-08-21T00:00:09;100949.81;;;26.12;nan
45633;BME280;31352;41.406;2.158;2022-08-21T00:02:43;100946.19;;;26.13;nan
45633;BME280;31352;41.406;2.158;2022-08-21T00:05:10;100951.38;;;26.15;nan
45633;BME280;31352;41.406;2.158;2022-08-21T00:07:36;100940.63;;;26.16;nan
45633;BME280;31352;41.406;2.158;2022-08-21T00:10:03;100950.19;;;26.19;nan
45633;BME280;31352;41.406;2.158;2022-08-21T00:12:30;100949.59;;;26.15;nan
45633;BME280;31352;41.406;2.158;2022-08-21T00:14:57;100947.88;;;26.14;nan
45633;BME280;31352;41.406;2.158;2022-08-21T00:17:24;100953.00;;;26.17;nan
45633;BME280;31352;41.406;2.158;2022-08-21T00:19:51;100936.13;;;26.17;nan
45633;BME280;31352;41.406;2.158;2022-08-21T00:22:18;100940.34;;;26.19;nan
45633;BME280;31352;41.406;2.158;2022-08-21T00:24:45;100947.88;;;26.14;nan
45633;BME280;31352;41.406;2.158;2022-08-21T00:27:12;100944.13;;;26.17;nan
45633;BME280;31352;41.406;2.158;2022-08-21T00:29:38;100947.66;;;26.17;nan
45633;BME280;31352;41.406;2.158;2022-08-21T00:32:05;100940.47;;;26.18;nan
45633;BME280;31352;41.406;2.158;2022-08-21T00:34:32;100936.97;;;26.17;nan
45633;BME280;31352;41.406;2.158;2022-08-21T00:36:58;100944.13;;;26.17;nan
45633;BME280;31352;41.406;2.158;2022-08-21T00:39:25;100948.63;;;26.16;nan
45633;BME280;31352;41.406;2.158;2022-08-21T00:41:52;100944.97;;;26.17;nan
45633;BME280;31352;41.406;2.158;2022-08-21T00:44:19;100942.44;;;26.16;nan
45633;BME280;31352;41.406;2.158;2022-08-21T00:46:45;100934.53;;;26.14;nan
45633;BME280;31352;41.406;2.158;2022-08-21T00:49:13;100938.16;;;26.13;nan
45633;BME280;31352;41.406;2.158;2022-08-21T00:51:47;100934.78;;;26.11;nan
45633;BME280;31352;41.406;2.158;2022-08-21T00:54:15;100927.13;;;26.18;nan
45633;BME280;31352;41.406;2.158;2022-08-21T00:56:44;100927.25;;;26.16;nan
45633;BME280;31352;41.406;2.158;2022-08-21T00:59:11;100930.16;;;26.13;nan
45633;BME280;31352;41.406;2.158;2022-08-21T01:01:39;100930.00;;;26.15;nan
45633;BME280;31352;41.406;2.158;2022-08-21T01:04:06;100932.44;;;26.18;nan
45633;BME280;31352;41.406;2.158;2022-08-21T01:06:33;100934.16;;;26.19;nan
45633;BME280;31352;41.406;2.158;2022-08-21T01:09:00;100921.78;;;26.18;nan
45633;BME280;31352;41.406;2.158;2022-08-21T01:11:26;100927.34;;;26.15;nan
45633;BME280;31352;41.406;2.158;2022-08-21T01:13:53;100926.53;;;26.14;nan
45633;BME280;31352;41.406;2.158;2022-08-21T01:16:20;100929.56;;;26.09;nan
45633;BME280;31352;41.406;2.158;2022-08-21T01:18:48;100929.56;;;26.09;nan
45633;BME280;31352;41.406;2.158;2022-08-21T01:21:17;100927.59;;;26.12;nan
45633;BME280;31352;41.406;2.158;2022-08-21T01:23:46;100928.88;;;26.07;nan
45633;BME280;31352;41.406;2.158;2022-08-21T01:26:13;100917.19;;;26.08;nan
45633;BME280;31352;41.406;2.158;2022-08-21T01:28:44;100911.59;;;26.12;nan
45633;BME280;31352;41.406;2.158;2022-08-21T01:31:12;100910.50;;;26.14;nan
45633;BME280;31352;41.406;2.158;2022-08-21T01:33:40;100911.72;;;26.10;nan
45633;BME280;31352;41.406;2.158;2022-08-21T01:36:06;100916.66;;;26.15;nan
45633;BME280;31352;41.406;2.158;2022-08-21T01:38:33;100919.47;;;26.13;nan
45633;BME280;31352;41.406;2.158;2022-08-21T01:41:00;100909.91;;;26.11;nan
45633;BME280;31352;41.406;2.158;2022-08-21T01:43:27;100912.97;;;26.06;nan
45633;BME280;31352;41.406;2.158;2022-08-21T01:46:00;100911.03;;;26.08;nan
45633;BME280;31352;41.406;2.158;2022-08-21T01:48:26;100912.53;;;26.01;nan
45633;BME280;31352;41.406;2.158;2022-08-21T01:50:53;100910.81;;;26.00;nan
45633;BME280;31352;41.406;2.158;2022-08-21T01:53:22;100908.16;;;26.00;nan
45633;BME280;31352;41.406;2.158;2022-08-21T01:55:53;100906.47;;;25.99;nan
45633;BME280;31352;41.406;2.158;2022-08-21T01:58:20;100903.66;;;26.00;nan
45633;BME280;31352;41.406;2.158;2022-08-21T02:00:46;100895.91;;;25.97;nan
45633;BME280;31352;41.406;2.158;2022-08-21T02:03:13;100892.53;;;25.95;nan
45633;BME280;31352;41.406;2.158;2022-08-21T02:05:40;100888.16;;;25.94;nan
45633;BME280;31352;41.406;2.158;2022-08-21T02:08:07;100889.59;;;25.98;nan
45633;BME280;31352;41.406;2.158;2022-08-21T02:10:34;100884.88;;;26.02;nan
45633;BME280;31352;41.406;2.158;2022-08-21T02:13:00;100888.34;;;26.02;nan
45633;BME280;31352;41.406;2.158;2022-08-21T02:15:28;100882.44;;;25.99;nan
45633;BME280;31352;41.406;2.158;2022-08-21T02:17:57;100886.09;;;25.98;nan
45633;BME280;31352;41.406;2.158;2022-08-21T02:20:29;100886.94;;;25.98;nan
45633;BME280;31352;41.406;2.158;2022-08-21T02:22:56;100877.13;;;25.99;nan
45633;BME280;31352;41.406;2.158;2022-08-21T02:25:24;100880.03;;;25.96;nan
45633;BME280;31352;41.406;2.158;2022-08-21T02:27:51;100883.41;;;25.98;nan
45633;BME280;31352;41.406;2.158;2022-08-21T02:30:20;100879.78;;;25.99;nan
45633;BME280;31352;41.406;2.158;2022-08-21T02:32:47;100881.59;;;25.98;nan
45633;BME280;31352;41.406;2.158;2022-08-21T02:35:13;100869.94;;;25.99;nan
45633;BME280;31352;41.406;2.158;2022-08-21T02:37:59;100877.38;;;25.96;nan
45633;BME280;31352;41.406;2.158;2022-08-21T02:40:27;100878.78;;;26.00;nan
45633;BME280;31352;41.406;2.158;2022-08-21T02:42:54;100867.16;;;26.01;nan
45633;BME280;31352;41.406;2.158;2022-08-21T02:45:22;100863.50;;;26.02;nan
45633;BME280;31352;41.406;2.158;2022-08-21T02:47:49;100862.78;;;26.00;nan
45633;BME280;31352;41.406;2.158;2022-08-21T02:50:18;100861.91;;;25.99;nan
45633;BME280;31352;41.406;2.158;2022-08-21T02:52:47;100861.47;;;25.94;nan
45633;BME280;31352;41.406;2.158;2022-08-21T02:55:13;100870.34;;;25.95;nan
45633;BME280;31352;41.406;2.158;2022-08-21T02:57:40;100860.03;;;25.90;nan
45633;BME280;31352;41.406;2.158;2022-08-21T03:00:07;100864.03;;;25.96;nan
45633;BME280;31352;41.406;2.158;2022-08-21T03:02:35;100859.50;;;25.96;nan
45633;BME280;31352;41.406;2.158;2022-08-21T03:05:02;100855.56;;;25.91;nan
45633;BME280;31352;41.406;2.158;2022-08-21T03:07:29;100855.09;;;25.86;nan
45633;BME280;31352;41.406;2.158;2022-08-21T03:09:56;100851.06;;;25.91;nan
45633;BME280;31352;41.406;2.158;2022-08-21T03:12:23;100850.22;;;25.91;nan
45633;BME280;31352;41.406;2.158;2022-08-21T03:14:53;100846.56;;;25.92;nan
45633;BME280;31352;41.406;2.158;2022-08-21T03:17:19;100844.75;;;25.92;nan
45633;BME280;31352;41.406;2.158;2022-08-21T03:19:55;100849.28;;;25.81;nan
45633;BME280;31352;41.406;2.158;2022-08-21T03:22:22;100843.47;;;25.87;nan
45633;BME280;31352;41.406;2.158;2022-08-21T03:24:49;100839.53;;;25.91;nan
45633;BME280;31352;41.406;2.158;2022-08-21T03:27:16;100835.91;;;25.92;nan
45633;BME280;31352;41.406;2.158;2022-08-21T03:29:43;100836.44;;;25.86;nan
45633;BME280;31352;41.406;2.158;2022-08-21T03:32:09;100831.78;;;25.88;nan
45633;BME280;31352;41.406;2.158;2022-08-21T03:34:37;100835.19;;;25.90;nan
45633;BME280;31352;41.406;2.158;2022-08-21T03:37:05;100830.25;;;25.85;nan
45633;BME280;31352;41.406;2.158;2022-08-21T03:39:32;100835.47;;;25.87;nan
45633;BME280;31352;41.406;2.158;2022-08-21T03:41:58;100831.16;;;25.95;nan
45633;BME280;31352;41.406;2.158;2022-08-21T03:44:26;100832.13;;;25.94;nan
45633;BME280;31352;41.406;2.158;2022-08-21T03:46:55;100835.38;;;25.98;nan
45633;BME280;31352;41.406;2.158;2022-08-21T03:49:22;100839.59;;;26.00;nan
45633;BME280;31352;41.406;2.158;2022-08-21T03:51:48;100839.59;;;26.00;nan
45633;BME280;31352;41.406;2.158;2022-08-21T03:54:15;100840.81;;;25.96;nan
45633;BME280;31352;41.406;2.158;2022-08-21T03:56:42;100845.13;;;25.88;nan
45633;BME280;31352;41.406;2.158;2022-08-21T03:59:09;100847.16;;;25.95;nan
45633;BME280;31352;41.406;2.158;2022-08-21T04:01:35;100849.44;;;26.00;nan
45633;BME280;31352;41.406;2.158;2022-08-21T04:04:03;100842.69;;;25.96;nan
45633;BME280;31352;41.406;2.158;2022-08-21T04:06:30;100845.03;;;25.89;nan
45633;BME280;31352;41.406;2.158;2022-08-21T04:09:01;100855.97;;;25.86;nan
45633;BME280;31352;41.406;2.158;2022-08-21T04:11:27;100840.91;;;25.85;nan
45633;BME280;31352;41.406;2.158;2022-08-21T04:13:54;100844.88;;;25.91;nan
45633;BME280;31352;41.406;2.158;2022-08-21T04:16:21;100837.88;;;25.90;nan
45633;BME280;31352;41.406;2.158;2022-08-21T04:18:48;100844.28;;;25.87;nan
45633;BME280;31352;41.406;2.158;2022-08-21T04:21:14;100845.13;;;25.88;nan
45633;BME280;31352;41.406;2.158;2022-08-21T04:23:41;100845.88;;;25.90;nan
45633;BME280;31352;41.406;2.158;2022-08-21T04:26:08;100837.00;;;25.89;nan
45633;BME280;31352;41.406;2.158;2022-08-21T04:28:35;100844.63;;;25.94;nan
45633;BME280;31352;41.406;2.158;2022-08-21T04:31:01;100850.44;;;25.99;nan
45633;BME280;31352;41.406;2.158;2022-08-21T04:33:28;100844.94;;;26.00;nan
45633;BME280;31352;41.406;2.158;2022-08-21T04:35:55;100841.81;;;25.95;nan
45633;BME280;31352;41.406;2.158;2022-08-21T04:38:22;100847.28;;;25.94;nan
45633;BME280;31352;41.406;2.158;2022-08-21T04:40:48;100852.09;;;25.79;nan
45633;BME280;31352;41.406;2.158;2022-08-21T04:43:15;100843.00;;;25.82;nan
45633;BME280;31352;41.406;2.158;2022-08-21T04:45:44;100838.63;;;25.81;nan
45633;BME280;31352;41.406;2.158;2022-08-21T04:48:12;100851.25;;;25.79;nan
45633;BME280;31352;41.406;2.158;2022-08-21T04:53:10;100849.88;;;25.84;nan
45633;BME280;31352;41.406;2.158;2022-08-21T04:55:38;100845.66;;;25.82;nan
45633;BME280;31352;41.406;2.158;2022-08-21T04:58:05;100845.88;;;25.90;nan
45633;BME280;31352;41.406;2.158;2022-08-21T05:00:33;100844.97;;;25.80;nan
45633;BME280;31352;41.406;2.158;2022-08-21T05:03:00;100841.97;;;25.73;nan
45633;BME280;31352;41.406;2.158;2022-08-21T05:05:28;100846.69;;;25.70;nan
45633;BME280;31352;41.406;2.158;2022-08-21T05:07:56;100843.19;;;25.69;nan
45633;BME280;31352;41.406;2.158;2022-08-21T05:10:23;100839.28;;;25.73;nan
45633;BME280;31352;41.406;2.158;2022-08-21T05:12:50;100839.34;;;25.83;nan
45633;BME280;31352;41.406;2.158;2022-08-21T05:15:17;100839.28;;;25.94;nan
45633;BME280;31352;41.406;2.158;2022-08-21T05:17:44;100843.59;;;25.85;nan
45633;BME280;31352;41.406;2.158;2022-08-21T05:20:17;100846.94;;;25.87;nan
45633;BME280;31352;41.406;2.158;2022-08-21T05:22:45;100851.97;;;25.81;nan
45633;BME280;31352;41.406;2.158;2022-08-21T05:25:12;100845.13;;;25.88;nan
45633;BME280;31352;41.406;2.158;2022-08-21T05:27:39;100854.78;;;25.79;nan
45633;BME280;31352;41.406;2.158;2022-08-21T05:30:06;100857.25;;;25.92;nan
45633;BME280;31352;41.406;2.158;2022-08-21T05:32:34;100858.88;;;25.83;nan
45633;BME280;31352;41.406;2.158;2022-08-21T05:35:01;100857.78;;;25.86;nan
45633;BME280;31352;41.406;2.158;2022-08-21T05:37:28;100862.44;;;25.73;nan
45633;BME280;31352;41.406;2.158;2022-08-21T05:39:55;100857.19;;;25.82;nan
45633;BME280;31352;41.406;2.158;2022-08-21T05:42:42;100864.16;;;25.74;nan
45633;BME280;31352;41.406;2.158;2022-08-21T05:45:08;100863.91;;;25.77;nan
45633;BME280;31352;41.406;2.158;2022-08-21T05:47:35;100865.81;;;25.75;nan
45633;BME280;31352;41.406;2.158;2022-08-21T05:50:02;100868.19;;;25.89;nan
45633;BME280;31352;41.406;2.158;2022-08-21T05:52:29;100870.16;;;25.87;nan
45633;BME280;31352;41.406;2.158;2022-08-21T05:54:56;100864.31;;;26.02;nan
45633;BME280;31352;41.406;2.158;2022-08-21T05:57:23;100866.81;;;25.94;nan
45633;BME280;31352;41.406;2.158;2022-08-21T05:59:51;100869.31;;;25.86;nan
45633;BME280;31352;41.406;2.158;2022-08-21T06:02:18;100873.38;;;25.90;nan
45633;BME280;31352;41.406;2.158;2022-08-21T06:04:45;100873.25;;;25.92;nan
45633;BME280;31352;41.406;2.158;2022-08-21T06:07:12;100871.88;;;25.97;nan
45633;BME280;31352;41.406;2.158;2022-08-21T06:09:38;100863.94;;;26.07;nan
45633;BME280;31352;41.406;2.158;2022-08-21T06:12:06;100863.53;;;26.12;nan
45633;BME280;31352;41.406;2.158;2022-08-21T06:14:32;100875.06;;;26.12;nan
45633;BME280;31352;41.406;2.158;2022-08-21T06:17:06;100867.69;;;26.16;nan
45633;BME280;31352;41.406;2.158;2022-08-21T06:19:33;100878.69;;;26.22;nan
45633;BME280;31352;41.406;2.158;2022-08-21T06:22:00;100877.72;;;26.23;nan
45633;BME280;31352;41.406;2.158;2022-08-21T06:24:27;100876.06;;;26.11;nan
45633;BME280;31352;41.406;2.158;2022-08-21T06:26:54;100876.28;;;26.19;nan
45633;BME280;31352;41.406;2.158;2022-08-21T06:29:21;100879.25;;;26.05;nan
45633;BME280;31352;41.406;2.158;2022-08-21T06:31:48;100883.81;;;26.14;nan
45633;BME280;31352;41.406;2.158;2022-08-21T06:34:15;100888.06;;;26.17;nan
45633;BME280;31352;41.406;2.158;2022-08-21T06:36:42;100879.06;;;26.18;nan
45633;BME280;31352;41.406;2.158;2022-08-21T06:39:09;100889.94;;;26.05;nan
45633;BME280;31352;41.406;2.158;2022-08-21T06:41:41;100890.19;;;26.02;nan
45633;BME280;31352;41.406;2.158;2022-08-21T06:44:08;100883.41;;;25.98;nan
45633;BME280;31352;41.406;2.158;2022-08-21T06:46:35;100887.31;;;25.94;nan
45633;BME280;31352;41.406;2.158;2022-08-21T06:49:02;100885.38;;;25.96;nan
45633;BME280;31352;41.406;2.158;2022-08-21T06:51:28;100878.25;;;26.06;nan
45633;BME280;31352;41.406;2.158;2022-08-21T06:53:55;100879.00;;;26.08;nan
45633;BME280;31352;41.406;2.158;2022-08-21T06:56:22;100874.88;;;26.04;nan
45633;BME280;31352;41.406;2.158;2022-08-21T06:58:49;100875.09;;;25.91;nan
45633;BME280;31352;41.406;2.158;2022-08-21T07:01:16;100873.78;;;25.86;nan
45633;BME280;31352;41.406;2.158;2022-08-21T07:03:43;100869.09;;;25.99;nan
45633;BME280;31352;41.406;2.158;2022-08-21T07:06:10;100868.09;;;26.00;nan
45633;BME280;31352;41.406;2.158;2022-08-21T07:08:37;100859.84;;;26.03;nan
45633;BME280;31352;41.406;2.158;2022-08-21T07:11:07;100863.50;;;26.02;nan
45633;BME280;31352;41.406;2.158;2022-08-21T07:13:35;100865.75;;;26.06;nan
45633;BME280;31352;41.406;2.158;2022-08-21T07:16:02;100866.72;;;26.17;nan
45633;BME280;31352;41.406;2.158;2022-08-21T07:18:29;100861.97;;;26.09;nan
45633;BME280;31352;41.406;2.158;2022-08-21T07:20:56;100860.03;;;26.11;nan
45633;BME280;31352;41.406;2.158;2022-08-21T07:23:28;100852.56;;;26.05;nan
45633;BME280;31352;41.406;2.158;2022-08-21T07:25:55;100855.88;;;26.18;nan
45633;BME280;31352;41.406;2.158;2022-08-21T07:28:22;100851.00;;;26.23;nan
45633;BME280;31352;41.406;2.158;2022-08-21T07:30:52;100849.94;;;26.35;nan
45633;BME280;31352;41.406;2.158;2022-08-21T07:33:20;100850.69;;;26.47;nan
45633;BME280;31352;41.406;2.158;2022-08-21T07:35:46;100847.28;;;26.45;nan
45633;BME280;31352;41.406;2.158;2022-08-21T07:38:13;100851.69;;;26.55;nan
45633;BME280;31352;41.406;2.158;2022-08-21T07:40:40;100852.94;;;26.51;nan
45633;BME280;31352;41.406;2.158;2022-08-21T07:43:06;100851.00;;;26.53;nan
45633;BME280;31352;41.406;2.158;2022-08-21T07:45:33;100851.19;;;26.71;nan
45633;BME280;31352;41.406;2.158;2022-08-21T07:48:00;100849.91;;;26.75;nan
45633;BME280;31352;41.406;2.158;2022-08-21T07:50:27;100851.34;;;26.79;nan
45633;BME280;31352;41.406;2.158;2022-08-21T07:52:53;100848.66;;;26.79;nan
45633;BME280;31352;41.406;2.158;2022-08-21T07:55:21;100851.94;;;26.83;nan
45633;BME280;31352;41.406;2.158;2022-08-21T07:57:48;100851.09;;;26.82;nan
45633;BME280;31352;41.406;2.158;2022-08-21T08:00:17;100846.34;;;26.86;nan
45633;BME280;31352;41.406;2.158;2022-08-21T08:02:44;100847.47;;;26.83;nan
45633;BME280;31352;41.406;2.158;2022-08-21T08:05:12;100854.34;;;26.86;nan
45633;BME280;31352;41.406;2.158;2022-08-21T08:07:39;100850.75;;;26.76;nan
45633;BME280;31352;41.406;2.158;2022-08-21T08:10:06;100851.25;;;26.81;nan
45633;BME280;31352;41.406;2.158;2022-08-21T08:12:34;100850.19;;;26.72;nan
45633;BME280;31352;41.406;2.158;2022-08-21T08:15:02;100851.50;;;26.78;nan
45633;BME280;31352;41.406;2.158;2022-08-21T08:17:29;100859.34;;;26.79;nan
45633;BME280;31352;41.406;2.158;2022-08-21T08:19:56;100851.75;;;26.75;nan
45633;BME280;31352;41.406;2.158;2022-08-21T08:22:23;100847.78;;;26.69;nan
45633;BME280;31352;41.406;2.158;2022-08-21T08:24:51;100848.25;;;26.74;nan
45633;BME280;31352;41.406;2.158;2022-08-21T08:27:18;100851.03;;;26.73;nan
45633;BME280;31352;41.406;2.158;2022-08-21T08:29:44;100857.81;;;26.77;nan
45633;BME280;31352;41.406;2.158;2022-08-21T08:32:12;100846.69;;;26.72;nan
45633;BME280;31352;41.406;2.158;2022-08-21T08:34:39;100835.28;;;26.70;nan
45633;BME280;31352;41.406;2.158;2022-08-21T08:37:07;100838.09;;;26.68;nan
45633;BME280;31352;41.406;2.158;2022-08-21T08:39:34;100838.41;;;26.75;nan
45633;BME280;31352;41.406;2.158;2022-08-21T08:42:14;100842.47;;;26.79;nan
45633;BME280;31352;41.406;2.158;2022-08-21T08:44:59;100837.97;;;26.79;nan
45633;BME280;31352;41.406;2.158;2022-08-21T08:47:27;100840.56;;;26.81;nan
45633;BME280;31352;41.406;2.158;2022-08-21T08:49:58;100836.75;;;26.83;nan
45633;BME280;31352;41.406;2.158;2022-08-21T08:52:33;100832.41;;;26.82;nan
45633;BME280;31352;41.406;2.158;2022-08-21T08:55:05;100833.25;;;26.83;nan
45633;BME280;31352;41.406;2.158;2022-08-21T08:57:32;100823.69;;;26.90;nan
45633;BME280;31352;41.406;2.158;2022-08-21T09:00:01;100835.75;;;26.84;nan
45633;BME280;31352;41.406;2.158;2022-08-21T09:02:28;100836.63;;;26.85;nan
45633;BME280;31352;41.406;2.158;2022-08-21T09:04:55;100836.34;;;26.88;nan
45633;BME280;31352;41.406;2.158;2022-08-21T09:09:59;100828.34;;;26.97;nan
45633;BME280;31352;41.406;2.158;2022-08-21T09:25:12;100829.34;;;27.06;nan
45633;BME280;31352;41.406;2.158;2022-08-21T09:27:41;100838.06;;;27.08;nan
45633;BME280;31352;41.406;2.158;2022-08-21T09:30:08;100833.44;;;27.10;nan
45633;BME280;31352;41.406;2.158;2022-08-21T09:32:36;100820.91;;;27.20;nan
45633;BME280;31352;41.406;2.158;2022-08-21T09:35:06;100818.38;;;27.28;nan
45633;BME280;31352;41.406;2.158;2022-08-21T09:37:45;100825.56;;;27.37;nan
45633;BME280;31352;41.406;2.158;2022-08-21T09:40:18;100835.44;;;27.46;nan
45633;BME280;31352;41.406;2.158;2022-08-21T09:42:53;100836.13;;;27.58;nan
45633;BME280;31352;41.406;2.158;2022-08-21T09:45:20;100832.03;;;27.63;nan
45633;BME280;31352;41.406;2.158;2022-08-21T09:47:47;100831.22;;;27.63;nan
45633;BME280;31352;41.406;2.158;2022-08-21T09:52:48;100819.59;;;27.82;nan
45633;BME280;31352;41.406;2.158;2022-08-21T09:55:30;100822.25;;;27.91;nan
45633;BME280;31352;41.406;2.158;2022-08-21T09:58:17;100813.28;;;27.83;nan
45633;BME280;31352;41.406;2.158;2022-08-21T10:00:44;100816.41;;;27.78;nan
45633;BME280;31352;41.406;2.158;2022-08-21T10:03:20;100809.59;;;27.93;nan
45633;BME280;31352;41.406;2.158;2022-08-21T10:05:55;100810.03;;;27.89;nan
45633;BME280;31352;41.406;2.158;2022-08-21T10:08:23;100799.34;;;27.79;nan
45633;BME280;31352;41.406;2.158;2022-08-21T10:10:51;100807.44;;;27.97;nan
45633;BME280;31352;41.406;2.158;2022-08-21T10:13:25;100793.47;;;28.03;nan
45633;BME280;31352;41.406;2.158;2022-08-21T10:18:28;100780.56;;;28.08;nan
45633;BME280;31352;41.406;2.158;2022-08-21T10:21:01;100783.66;;;27.94;nan
45633;BME280;31352;41.406;2.158;2022-08-21T10:23:51;100782.50;;;28.06;nan
45633;BME280;31352;41.406;2.158;2022-08-21T10:31:21;100778.84;;;27.97;nan
45633;BME280;31352;41.406;2.158;2022-08-21T10:34:00;100767.84;;;28.10;nan
45633;BME280;31352;41.406;2.158;2022-08-21T10:36:37;100779.75;;;28.25;nan
45633;BME280;31352;41.406;2.158;2022-08-21T10:44:57;100772.34;;;28.00;nan
45633;BME280;31352;41.406;2.158;2022-08-21T10:47:32;100770.81;;;28.07;nan
45633;BME280;31352;41.406;2.158;2022-08-21T11:08:31;100755.25;;;28.74;nan
45633;BME280;31352;41.406;2.158;2022-08-21T11:11:03;100751.13;;;28.98;nan
45633;BME280;31352;41.406;2.158;2022-08-21T11:13:44;100749.59;;;28.95;nan
45633;BME280;31352;41.406;2.158;2022-08-21T11:18:42;100744.47;;;28.84;nan
45633;BME280;31352;41.406;2.158;2022-08-21T11:21:18;100738.88;;;28.50;nan
45633;BME280;31352;41.406;2.158;2022-08-21T11:29:00;100731.00;;;28.94;nan
45633;BME280;31352;41.406;2.158;2022-08-21T11:34:43;100729.34;;;29.01;nan
45633;BME280;31352;41.406;2.158;2022-08-21T11:42:45;100710.03;;;28.62;nan
45633;BME280;31352;41.406;2.158;2022-08-21T11:45:28;100706.47;;;28.71;nan
45633;BME280;31352;41.406;2.158;2022-08-21T11:48:01;100709.06;;;28.81;nan
45633;BME280;31352;41.406;2.158;2022-08-21T11:50:32;100712.03;;;29.13;nan
45633;BME280;31352;41.406;2.158;2022-08-21T11:53:05;100708.00;;;29.09;nan
45633;BME280;31352;41.406;2.158;2022-08-21T12:03:10;100693.22;;;28.87;nan
45633;BME280;31352;41.406;2.158;2022-08-21T12:05:40;100690.97;;;28.83;nan
45633;BME280;31352;41.406;2.158;2022-08-21T12:10:38;100694.81;;;28.98;nan
45633;BME280;31352;41.406;2.158;2022-08-21T12:13:26;100685.47;;;29.02;nan
45633;BME280;31352;41.406;2.158;2022-08-21T12:18:35;100687.38;;;28.92;nan
45633;BME280;31352;41.406;2.158;2022-08-21T12:21:16;100678.53;;;29.17;nan
45633;BME280;31352;41.406;2.158;2022-08-21T12:26:35;100678.41;;;29.01;nan
45633;BME280;31352;41.406;2.158;2022-08-21T12:29:16;100676.13;;;29.06;nan
45633;BME280;31352;41.406;2.158;2022-08-21T12:31:49;100666.09;;;28.90;nan
45633;BME280;31352;41.406;2.158;2022-08-21T12:34:16;100675.00;;;29.16;nan
45633;BME280;31352;41.406;2.158;2022-08-21T12:36:45;100676.16;;;29.32;nan
45633;BME280;31352;41.406;2.158;2022-08-21T12:39:20;100677.34;;;29.37;nan
45633;BME280;31352;41.406;2.158;2022-08-21T12:41:49;100671.06;;;29.03;nan
45633;BME280;31352;41.406;2.158;2022-08-21T12:44:21;100669.22;;;28.86;nan
45633;BME280;31352;41.406;2.158;2022-08-21T12:49:26;100671.69;;;29.74;nan
45633;BME280;31352;41.406;2.158;2022-08-21T12:54:22;100668.78;;;29.59;nan
45633;BME280;31352;41.406;2.158;2022-08-21T12:56:55;100662.78;;;29.65;nan
45633;BME280;31352;41.406;2.158;2022-08-21T12:59:22;100659.09;;;29.41;nan
45633;BME280;31352;41.406;2.158;2022-08-21T13:01:50;100654.59;;;29.41;nan
45633;BME280;31352;41.406;2.158;2022-08-21T13:04:19;100655.44;;;29.42;nan
45633;BME280;31352;41.406;2.158;2022-08-21T13:06:48;100661.13;;;29.39;nan
45633;BME280;31352;41.406;2.158;2022-08-21T13:09:19;100651.41;;;29.46;nan
45633;BME280;31352;41.406;2.158;2022-08-21T13:11:47;100656.56;;;29.65;nan
45633;BME280;31352;41.406;2.158;2022-08-21T13:14:31;100649.34;;;29.65;nan
45633;BME280;31352;41.406;2.158;2022-08-21T13:17:00;100653.31;;;29.53;nan
45633;BME280;31352;41.406;2.158;2022-08-21T13:19:30;100647.75;;;29.47;nan
45633;BME280;31352;41.406;2.158;2022-08-21T13:21:58;100653.22;;;29.37;nan
45633;BME280;31352;41.406;2.158;2022-08-21T13:24:26;100646.19;;;29.36;nan
45633;BME280;31352;41.406;2.158;2022-08-21T13:27:43;100644.19;;;29.38;nan
45633;BME280;31352;41.406;2.158;2022-08-21T13:32:28;100652.22;;;29.38;nan
45633;BME280;31352;41.406;2.158;2022-08-21T13:34:58;100653.63;;;29.50;nan
45633;BME280;31352;41.406;2.158;2022-08-21T13:37:26;100643.19;;;29.39;nan
45633;BME280;31352;41.406;2.158;2022-08-21T13:39:55;100642.69;;;29.44;nan
45633;BME280;31352;41.406;2.158;2022-08-21T13:42:22;100643.19;;;29.39;nan
45633;BME280;31352;41.406;2.158;2022-08-21T13:44:50;100634.50;;;29.45;nan
45633;BME280;31352;41.406;2.158;2022-08-21T13:47:18;100627.59;;;29.43;nan
45633;BME280;31352;41.406;2.158;2022-08-21T13:49:46;100622.19;;;29.35;nan
45633;BME280;31352;41.406;2.158;2022-08-21T13:54:43;100624.78;;;29.52;nan
45633;BME280;31352;41.406;2.158;2022-08-21T13:57:18;100627.16;;;29.55;nan
45633;BME280;31352;41.406;2.158;2022-08-21T13:59:45;100629.00;;;29.55;nan
45633;BME280;31352;41.406;2.158;2022-08-21T14:02:13;100629.16;;;29.53;nan
45633;BME280;31352;41.406;2.158;2022-08-21T14:05:00;100622.47;;;29.57;nan
45633;BME280;31352;41.406;2.158;2022-08-21T14:07:34;100616.59;;;29.54;nan
45633;BME280;31352;41.406;2.158;2022-08-21T14:12:43;100605.78;;;29.79;nan
45633;BME280;31352;41.406;2.158;2022-08-21T14:15:12;100601.00;;;29.57;nan
45633;BME280;31352;41.406;2.158;2022-08-21T14:17:40;100605.53;;;29.57;nan
45633;BME280;31352;41.406;2.158;2022-08-21T14:20:28;100603.81;;;29.48;nan
45633;BME280;31352;41.406;2.158;2022-08-21T14:22:55;100605.03;;;29.61;nan
45633;BME280;31352;41.406;2.158;2022-08-21T14:27:50;100596.31;;;29.25;nan
45633;BME280;31352;41.406;2.158;2022-08-21T14:30:19;100590.97;;;29.34;nan
45633;BME280;31352;41.406;2.158;2022-08-21T14:32:46;100578.50;;;29.50;nan
45633;BME280;31352;41.406;2.158;2022-08-21T14:35:14;100568.50;;;29.60;nan
45633;BME280;31352;41.406;2.158;2022-08-21T14:37:44;100563.84;;;29.78;nan
45633;BME280;31352;41.406;2.158;2022-08-21T14:40:11;100563.44;;;29.57;nan
45633;BME280;31352;41.406;2.158;2022-08-21T14:42:40;100573.81;;;29.52;nan
45633;BME280;31352;41.406;2.158;2022-08-21T14:45:10;100576.00;;;29.57;nan
45633;BME280;31352;41.406;2.158;2022-08-21T14:47:40;100592.25;;;29.55;nan
45633;BME280;31352;41.406;2.158;2022-08-21T14:50:06;100598.34;;;30.07;nan
45633;BME280;31352;41.406;2.158;2022-08-21T14:52:33;100586.88;;;29.89;nan
45633;BME280;31352;41.406;2.158;2022-08-21T14:55:00;100569.03;;;29.80;nan
45633;BME280;31352;41.406;2.158;2022-08-21T14:57:27;100539.31;;;29.65;nan